createdAt,value
2018-07-21T00:00:12.345Z,13.60
2018-07-21T00:02:46.522Z,13.60
2018-07-21T00:05:26.014Z,13.60
2018-07-21T00:08:00.840Z,13.60
2018-07-21T00:10:35.613Z,13.60
2018-07-21T00:13:09.828Z,13.70
2018-07-21T00:15:44.051Z,13.70
2018-07-21T00:18:18.222Z,13.70
2018-07-21T00:20:52.390Z,13.60
2018-07-21T00:23:27.574Z,13.50
2018-07-21T00:26:01.708Z,13.50
2018-07-21T00:28:36.449Z,13.50
2018-07-21T00:31:11.656Z,13.40
2018-07-21T00:33:45.836Z,13.40
2018-07-21T00:36:20.044Z,13.30
2018-07-21T00:38:54.880Z,13.20
2018-07-21T00:41:29.124Z,13.20
2018-07-21T00:44:03.869Z,13.10
2018-07-21T00:46:39.028Z,13.10
2018-07-21T00:49:13.195Z,13.00
2018-07-21T00:51:48.371Z,13.00
2018-07-21T00:54:22.528Z,13.00
2018-07-21T00:59:30.405Z,12.80
2018-07-21T01:02:05.018Z,12.80
2018-07-21T01:04:39.208Z,12.80
2018-07-21T01:07:13.456Z,12.70
2018-07-21T01:09:47.859Z,12.70
2018-07-21T01:12:22.003Z,12.60
2018-07-21T01:14:56.213Z,12.60
2018-07-21T01:17:30.732Z,12.60
2018-07-21T01:20:05.288Z,12.60
2018-07-21T01:25:15.438Z,12.50
2018-07-21T01:27:49.604Z,12.40
2018-07-21T01:30:23.776Z,12.40
2018-07-21T01:35:31.633Z,12.50
2018-07-21T01:38:05.800Z,12.50
2018-07-21T01:40:40.009Z,12.50
2018-07-21T01:43:14.316Z,12.50
2018-07-21T01:45:49.580Z,12.50
2018-07-21T01:50:57.444Z,12.40
2018-07-21T01:53:32.676Z,12.40
2018-07-21T01:56:07.886Z,12.40
2018-07-21T01:58:42.025Z,12.30
2018-07-21T02:01:16.188Z,12.30
2018-07-21T02:06:26.007Z,12.20
2018-07-21T02:09:00.159Z,12.20
2018-07-21T02:14:10.105Z,12.10
2018-07-21T02:16:44.320Z,12.10
2018-07-21T02:19:18.461Z,12.00
2018-07-21T02:21:52.695Z,12.00
2018-07-21T02:24:27.904Z,12.00
2018-07-21T02:27:02.365Z,12.00
2018-07-21T02:32:10.535Z,12.10
2018-07-21T02:34:44.824Z,12.00
2018-07-21T02:37:19.021Z,12.00
2018-07-21T02:39:53.192Z,12.00
2018-07-21T02:47:34.834Z,11.90
2018-07-21T02:50:09.003Z,11.90
2018-07-21T02:52:44.201Z,11.90
2018-07-21T02:55:18.361Z,11.90
2018-07-21T03:03:00.007Z,11.90
2018-07-21T03:05:34.144Z,11.80
2018-07-21T03:08:08.332Z,11.80
2018-07-21T03:10:42.481Z,11.80
2018-07-21T03:13:16.690Z,11.90
2018-07-21T03:15:50.825Z,11.90
2018-07-21T03:18:26.003Z,11.90
2018-07-21T03:21:01.177Z,11.90
2018-07-21T03:23:36.335Z,11.90
2018-07-21T03:26:10.476Z,12.00
2018-07-21T03:31:18.327Z,12.00
2018-07-21T03:33:52.587Z,12.20
2018-07-21T03:36:44.236Z,12.60
2018-07-21T03:39:18.458Z,12.60
2018-07-21T03:41:52.664Z,12.90
2018-07-21T03:44:27.872Z,13.30
2018-07-21T03:47:02.025Z,13.70
2018-07-21T03:49:36.241Z,14.00
2018-07-21T03:52:10.399Z,14.30
2018-07-21T03:54:45.269Z,14.70
2018-07-21T03:57:19.981Z,15.00
2018-07-21T03:59:54.768Z,15.30
2018-07-21T04:02:29.484Z,15.70
2018-07-21T04:07:38.716Z,16.40
2018-07-21T04:10:13.509Z,16.80
2018-07-21T04:12:49.237Z,17.00
2018-07-21T04:15:23.990Z,17.00
2018-07-21T04:17:58.700Z,16.80
2018-07-21T04:20:33.496Z,16.60
2018-07-21T04:23:08.245Z,16.40
2018-07-21T04:25:42.994Z,16.50
2018-07-21T04:28:17.725Z,17.00
2018-07-21T04:30:52.629Z,17.70
2018-07-21T04:33:27.350Z,18.00
2018-07-21T04:36:03.146Z,17.80
2018-07-21T04:38:37.917Z,17.40
2018-07-21T04:41:12.696Z,17.00
2018-07-21T04:43:47.421Z,16.60
2018-07-21T04:46:22.203Z,16.40
2018-07-21T04:48:56.903Z,16.40
2018-07-21T04:51:31.640Z,16.90
2018-07-21T04:56:40.615Z,19.10
2018-07-21T04:59:16.429Z,20.40
2018-07-21T05:01:51.157Z,21.30
2018-07-21T05:04:25.936Z,22.10
2018-07-21T05:07:00.681Z,23.10
2018-07-21T05:09:36.460Z,23.80
2018-07-21T05:12:11.424Z,24.30
2018-07-21T05:14:46.181Z,24.50
2018-07-21T05:17:20.620Z,24.50
2018-07-21T05:22:29.052Z,24.60
2018-07-21T05:25:03.575Z,24.70
2018-07-21T05:27:38.040Z,24.60
2018-07-21T05:30:12.863Z,24.50
2018-07-21T05:32:47.317Z,24.30
2018-07-21T05:35:22.805Z,24.20
2018-07-21T05:37:57.269Z,24.40
2018-07-21T05:40:31.770Z,24.70
2018-07-21T05:43:06.192Z,25.40
2018-07-21T05:50:48.591Z,27.70
2018-07-21T05:53:22.983Z,27.90
2018-07-21T05:58:32.389Z,28.60
2018-07-21T06:01:06.860Z,28.70
2018-07-21T06:03:41.268Z,29.00
2018-07-21T06:06:15.774Z,29.50
2018-07-21T06:08:50.228Z,29.50
2018-07-21T06:13:58.645Z,29.10
2018-07-21T06:21:42.893Z,28.60
2018-07-21T06:24:17.340Z,28.40
2018-07-21T06:29:25.790Z,27.70
2018-07-21T06:32:00.286Z,27.70
2018-07-21T06:34:34.717Z,27.70
2018-07-21T06:39:43.145Z,28.60
2018-07-21T06:42:17.713Z,29.30
2018-07-21T06:44:52.120Z,30.30
2018-07-21T06:47:27.624Z,30.70
2018-07-21T06:50:02.113Z,31.30
2018-07-21T06:52:36.601Z,31.40
2018-07-21T06:55:14.782Z,31.30
2018-07-21T06:57:49.250Z,30.80
2018-07-21T07:00:23.680Z,30.40
2018-07-21T07:02:58.172Z,30.70
2018-07-21T07:05:32.668Z,31.10
2018-07-21T07:08:07.262Z,31.50
2018-07-21T07:10:42.717Z,31.20
2018-07-21T07:15:52.090Z,30.10
2018-07-21T07:18:26.657Z,30.00
2018-07-21T07:21:01.141Z,30.00
2018-07-21T07:23:35.630Z,30.10
2018-07-21T07:26:10.057Z,30.10
2018-07-21T07:28:44.508Z,29.20
2018-07-21T07:31:18.983Z,28.30
2018-07-21T07:36:27.383Z,28.50
2018-07-21T07:39:01.866Z,28.60
2018-07-21T07:41:36.340Z,28.90
2018-07-21T07:44:10.891Z,29.70
2018-07-21T07:46:45.300Z,30.90
2018-07-21T07:49:19.805Z,31.60
2018-07-21T07:51:54.214Z,32.00
2018-07-21T07:54:28.696Z,32.10
2018-07-21T07:57:03.132Z,31.90
2018-07-21T07:59:37.574Z,31.70
2018-07-21T08:02:13.120Z,31.50
2018-07-21T08:04:47.570Z,31.30
2018-07-21T08:07:22.521Z,31.40
2018-07-21T08:09:56.965Z,31.60
2018-07-21T08:12:31.359Z,31.60
2018-07-21T08:15:05.913Z,31.50
2018-07-21T08:17:40.320Z,31.70
2018-07-21T08:20:14.831Z,31.70
2018-07-21T08:22:49.232Z,31.40
2018-07-21T08:25:23.721Z,31.50
2018-07-21T08:30:32.681Z,31.70
2018-07-21T08:33:07.178Z,31.90
2018-07-21T08:38:20.016Z,31.80
2018-07-21T08:46:03.656Z,31.90
2018-07-21T08:48:38.082Z,31.70
2018-07-21T08:51:12.566Z,32.10
2018-07-21T08:53:47.026Z,32.00
2018-07-21T08:56:21.499Z,32.00
2018-07-21T08:58:55.891Z,31.40
2018-07-21T09:01:30.376Z,31.10
2018-07-21T09:04:04.797Z,31.60
2018-07-21T09:06:40.331Z,31.90
2018-07-21T09:09:15.780Z,31.80
2018-07-21T09:11:50.677Z,32.10
2018-07-21T09:14:26.148Z,32.00
2018-07-21T09:17:00.646Z,32.00
2018-07-21T09:19:35.080Z,31.90
2018-07-21T09:22:09.589Z,31.60
2018-07-21T09:24:44.000Z,31.60
2018-07-21T09:27:18.500Z,31.50
2018-07-21T09:29:52.954Z,31.60
2018-07-21T09:32:27.412Z,32.00
2018-07-21T09:37:35.860Z,32.30
2018-07-21T09:40:10.588Z,32.30
2018-07-21T09:42:45.115Z,32.30
2018-07-21T09:45:19.605Z,32.10
2018-07-21T09:50:29.055Z,32.00
2018-07-21T09:55:37.994Z,32.40
2018-07-21T09:58:12.603Z,32.60
2018-07-21T10:00:52.234Z,32.70
2018-07-21T10:03:27.703Z,32.70
2018-07-21T10:06:02.203Z,32.70
2018-07-21T10:08:36.660Z,32.90
2018-07-21T10:11:11.109Z,32.60
2018-07-21T10:13:45.543Z,32.60
2018-07-21T10:16:19.952Z,32.60
2018-07-21T10:18:54.504Z,32.40
2018-07-21T10:21:28.909Z,31.20
2018-07-21T10:24:08.707Z,31.10
2018-07-21T10:26:48.360Z,30.60
2018-07-21T10:29:22.905Z,30.00
2018-07-21T10:31:57.312Z,29.60
2018-07-21T10:34:31.769Z,29.30
2018-07-21T10:37:07.191Z,29.40
2018-07-21T10:39:41.651Z,29.70
2018-07-21T10:42:16.076Z,30.10
2018-07-21T10:44:50.620Z,30.50
2018-07-21T10:47:25.037Z,30.90
2018-07-21T10:49:59.510Z,30.80
2018-07-21T10:52:38.631Z,30.20
2018-07-21T10:55:13.184Z,29.80
2018-07-21T10:57:47.588Z,29.50
2018-07-21T11:00:22.089Z,29.20
2018-07-21T11:02:57.704Z,29.50
2018-07-21T11:05:33.199Z,30.10
2018-07-21T11:08:07.659Z,30.50
2018-07-21T11:13:20.399Z,30.90
2018-07-21T11:16:10.536Z,31.10
2018-07-21T11:18:49.066Z,31.10
2018-07-21T11:24:07.534Z,30.40
2018-07-21T11:26:42.724Z,30.40
2018-07-21T11:32:01.151Z,29.70
2018-07-21T11:34:36.589Z,29.70
2018-07-21T11:37:53.970Z,29.80
2018-07-21T11:40:38.012Z,29.90
2018-07-21T11:43:19.973Z,30.00
2018-07-21T11:45:54.409Z,30.00
2018-07-21T11:48:29.166Z,30.10
2018-07-21T11:51:03.715Z,30.20
2018-07-21T11:53:49.262Z,30.10
2018-07-21T11:56:29.021Z,30.20
2018-07-21T11:59:06.613Z,30.40
2018-07-21T12:01:41.046Z,30.30
2018-07-21T12:04:15.483Z,30.30
2018-07-21T12:06:51.006Z,30.30
2018-07-21T12:09:26.493Z,30.40
2018-07-21T12:12:01.921Z,30.40
2018-07-21T12:14:46.500Z,29.90
2018-07-21T12:17:26.236Z,29.80
2018-07-21T12:20:01.720Z,29.80
2018-07-21T12:22:36.172Z,29.60
2018-07-21T12:25:10.638Z,29.60
2018-07-21T12:27:46.080Z,29.50
2018-07-21T12:30:20.672Z,29.40
2018-07-21T12:32:55.094Z,29.20
2018-07-21T12:35:29.521Z,29.30
2018-07-21T12:38:03.951Z,29.20
2018-07-21T12:40:38.409Z,29.10
2018-07-21T12:45:47.854Z,28.60
2018-07-21T12:48:22.277Z,28.40
2018-07-21T12:53:30.706Z,28.10
2018-07-21T12:58:39.255Z,28.50
2018-07-21T13:01:13.692Z,28.40
2018-07-21T13:03:48.221Z,28.30
2018-07-21T13:06:22.721Z,27.90
2018-07-21T13:08:57.229Z,27.60
2018-07-21T13:11:31.637Z,27.70
2018-07-21T13:14:06.158Z,27.90
2018-07-21T13:16:40.651Z,28.20
2018-07-21T13:19:15.100Z,28.40
2018-07-21T13:24:24.515Z,28.40
2018-07-21T13:26:59.970Z,28.30
2018-07-21T13:29:34.392Z,28.50
2018-07-21T13:32:08.891Z,28.20
2018-07-21T13:34:43.319Z,28.10
2018-07-21T13:37:18.010Z,28.00
2018-07-21T13:39:53.589Z,28.10
2018-07-21T13:42:29.042Z,28.00
2018-07-21T13:45:03.483Z,28.10
2018-07-21T13:50:12.290Z,28.00
2018-07-21T13:52:46.756Z,27.80
2018-07-21T13:55:21.169Z,27.70
2018-07-21T13:57:55.650Z,27.60
2018-07-21T14:00:30.048Z,27.70
2018-07-21T14:03:04.529Z,27.50
2018-07-21T14:05:38.993Z,27.50
2018-07-21T14:08:13.396Z,27.50
2018-07-21T14:10:48.183Z,27.50
2018-07-21T14:18:30.625Z,27.30
2018-07-21T14:21:05.385Z,27.30
2018-07-21T14:23:40.075Z,27.30
2018-07-21T14:28:48.454Z,27.30
2018-07-21T14:31:23.208Z,27.30
2018-07-21T14:33:57.932Z,27.30
2018-07-21T14:36:33.743Z,27.10
2018-07-21T14:39:10.194Z,27.10
2018-07-21T14:41:45.787Z,27.00
2018-07-21T14:44:20.790Z,26.90
2018-07-21T14:46:55.226Z,26.90
2018-07-21T14:49:29.944Z,26.90
2018-07-21T14:52:04.667Z,26.90
2018-07-21T14:54:39.161Z,26.90
2018-07-21T14:57:15.019Z,26.90
2018-07-21T14:59:49.780Z,26.90
2018-07-21T15:02:24.511Z,26.90
2018-07-21T15:04:59.319Z,27.00
2018-07-21T15:07:33.762Z,26.90
2018-07-21T15:10:08.533Z,26.90
2018-07-21T15:15:17.535Z,26.90
2018-07-21T15:17:52.323Z,26.90
2018-07-21T15:20:27.193Z,26.90
2018-07-21T15:23:01.902Z,26.80
2018-07-21T15:25:37.623Z,26.70
2018-07-21T15:28:12.335Z,26.70
2018-07-21T15:33:21.339Z,26.70
2018-07-21T15:35:56.111Z,26.60
2018-07-21T15:38:30.812Z,26.70
2018-07-21T15:41:05.560Z,26.70
2018-07-21T15:43:41.266Z,26.60
2018-07-21T15:46:16.024Z,26.60
2018-07-21T15:53:59.221Z,26.50
2018-07-21T15:56:33.973Z,26.40
2018-07-21T15:59:08.672Z,26.40
2018-07-21T16:01:43.457Z,26.40
2018-07-21T16:06:52.527Z,26.20
2018-07-21T16:09:27.260Z,26.10
2018-07-21T16:12:02.021Z,26.10
2018-07-21T16:14:36.718Z,26.00
2018-07-21T16:17:11.487Z,26.00
2018-07-21T16:19:46.156Z,26.00
2018-07-21T16:22:22.007Z,26.00
2018-07-21T16:24:56.992Z,25.90
2018-07-21T16:27:32.786Z,25.80
2018-07-21T16:30:08.536Z,25.80
2018-07-21T16:32:43.254Z,25.80
2018-07-21T16:35:17.984Z,25.70
2018-07-21T16:37:52.743Z,25.60
2018-07-21T16:40:27.469Z,25.60
2018-07-21T16:43:02.207Z,25.50
2018-07-21T16:45:36.948Z,25.60
2018-07-21T16:48:12.700Z,25.60
2018-07-21T16:50:48.449Z,25.60
2018-07-21T16:53:24.211Z,25.60
2018-07-21T16:55:58.925Z,25.50
2018-07-21T16:58:33.663Z,25.50
2018-07-21T17:06:17.852Z,25.40
2018-07-21T17:14:01.156Z,25.20
2018-07-21T17:16:36.953Z,25.20
2018-07-21T17:19:11.714Z,25.20
2018-07-21T17:21:46.584Z,25.20
2018-07-21T17:24:21.337Z,25.20
2018-07-21T17:26:56.040Z,25.20
2018-07-21T17:29:31.831Z,25.20
2018-07-21T17:32:06.789Z,25.00
2018-07-21T17:34:41.528Z,24.90
2018-07-21T17:37:16.279Z,24.80
2018-07-21T17:39:50.956Z,24.80
2018-07-21T17:42:25.731Z,24.70
2018-07-21T17:45:00.452Z,24.60
2018-07-21T17:47:35.169Z,24.60
2018-07-21T17:50:09.908Z,24.50
2018-07-21T17:52:44.636Z,24.40
2018-07-21T17:55:19.307Z,24.40
2018-07-21T17:57:54.027Z,24.30
2018-07-21T18:00:29.760Z,24.30
2018-07-21T18:03:04.535Z,24.20
2018-07-21T18:05:39.270Z,24.10
2018-07-21T18:08:15.001Z,24.10
2018-07-21T18:10:50.709Z,24.00
2018-07-21T18:16:00.931Z,23.90
2018-07-21T18:18:35.669Z,23.90
2018-07-21T18:21:10.350Z,23.80
2018-07-21T18:23:45.084Z,23.80
2018-07-21T18:26:19.815Z,23.70
2018-07-21T18:28:54.555Z,23.70
2018-07-21T18:31:29.250Z,23.70
2018-07-21T18:34:05.061Z,23.60
2018-07-21T18:36:39.764Z,23.50
2018-07-21T18:39:14.510Z,23.50
2018-07-21T18:41:49.231Z,23.40
2018-07-21T18:44:25.037Z,23.40
2018-07-21T18:47:00.039Z,23.30
2018-07-21T18:52:10.379Z,23.10
2018-07-21T18:54:45.287Z,23.00
2018-07-21T18:57:20.007Z,23.00
2018-07-21T18:59:54.748Z,22.80
2018-07-21T19:02:29.674Z,22.70
2018-07-21T19:05:04.438Z,22.60
2018-07-21T19:07:40.228Z,22.40
2018-07-21T19:10:14.962Z,22.30
2018-07-21T19:12:51.031Z,22.10
2018-07-21T19:15:31.041Z,22.00
2018-07-21T19:20:46.069Z,21.70
2018-07-21T19:23:20.855Z,21.50
2018-07-21T19:26:00.701Z,21.40
2018-07-21T19:31:09.649Z,21.10
2018-07-21T19:36:21.224Z,20.80
2018-07-21T19:38:55.978Z,20.60
2018-07-21T19:42:03.586Z,20.40
2018-07-21T19:44:38.382Z,20.30
2018-07-21T19:47:13.154Z,20.20
2018-07-21T19:49:49.091Z,20.10
2018-07-21T19:52:23.829Z,19.90
2018-07-21T19:54:59.538Z,19.80
2018-07-21T19:57:34.245Z,19.70
2018-07-21T20:00:08.968Z,19.60
2018-07-21T20:02:43.728Z,19.50
2018-07-21T20:07:52.680Z,19.30
2018-07-21T20:10:27.387Z,19.30
2018-07-21T20:13:02.106Z,19.20
2018-07-21T20:15:36.837Z,19.10
2018-07-21T20:20:46.289Z,19.00
2018-07-21T20:23:21.017Z,18.90
2018-07-21T20:25:56.730Z,18.80
2018-07-21T20:28:31.440Z,18.80
2018-07-21T20:31:06.113Z,18.70
2018-07-21T20:33:41.080Z,18.60
2018-07-21T20:36:15.796Z,18.50
2018-07-21T20:38:50.639Z,18.50
2018-07-21T20:41:26.373Z,18.40
2018-07-21T20:46:36.722Z,18.20
2018-07-21T20:51:45.664Z,17.90
2018-07-21T20:56:54.689Z,17.90
2018-07-21T20:59:29.443Z,17.90
2018-07-21T21:02:04.193Z,17.80
2018-07-21T21:04:38.923Z,17.70
2018-07-21T21:07:13.672Z,17.60
2018-07-21T21:09:48.393Z,17.50
2018-07-21T21:12:23.212Z,17.60
2018-07-21T21:14:58.039Z,17.50
2018-07-21T21:17:32.820Z,17.40
2018-07-21T21:22:41.871Z,17.50
2018-07-21T21:25:17.740Z,17.50
2018-07-21T21:27:52.461Z,17.40
2018-07-21T21:30:27.146Z,17.30
2018-07-21T21:33:02.897Z,17.30
2018-07-21T21:35:37.612Z,17.20
2018-07-21T21:38:12.340Z,17.20
2018-07-21T21:40:48.072Z,17.00
2018-07-21T21:43:22.971Z,17.10
2018-07-21T21:45:57.692Z,17.00
2018-07-21T21:48:32.467Z,17.00
2018-07-21T21:51:07.224Z,16.90
2018-07-21T21:53:43.000Z,16.80
2018-07-21T21:56:17.733Z,16.80
2018-07-21T21:58:52.528Z,16.80
2018-07-21T22:01:27.545Z,16.70
2018-07-21T22:04:02.425Z,16.70
2018-07-21T22:09:12.701Z,16.60
2018-07-21T22:11:47.485Z,16.50
2018-07-21T22:16:57.693Z,16.40
2018-07-21T22:19:32.546Z,16.30
2018-07-21T22:22:07.301Z,16.20
2018-07-21T22:24:42.021Z,16.20
2018-07-21T22:27:16.732Z,16.20
2018-07-21T22:29:51.464Z,16.10
2018-07-21T22:32:26.215Z,16.20
2018-07-21T22:37:35.397Z,16.20
2018-07-21T22:40:10.232Z,16.20
2018-07-21T22:42:45.020Z,16.20
2018-07-21T22:47:54.041Z,16.20
2018-07-21T22:50:29.749Z,16.10
2018-07-21T22:53:05.585Z,16.20
2018-07-21T22:55:40.344Z,16.20
2018-07-21T22:58:16.108Z,16.20
2018-07-21T23:00:50.997Z,16.20
2018-07-21T23:03:25.775Z,16.20
2018-07-21T23:06:01.532Z,16.20
2018-07-21T23:08:37.269Z,16.20
2018-07-21T23:11:13.080Z,18.00
2018-07-21T23:13:47.780Z,16.10
2018-07-21T23:16:23.587Z,16.10
2018-07-21T23:18:58.288Z,16.10
2018-07-21T23:21:33.041Z,16.10
2018-07-21T23:24:07.813Z,16.10
2018-07-21T23:26:42.569Z,16.10
2018-07-21T23:29:17.265Z,16.10
2018-07-21T23:31:52.051Z,16.30
2018-07-21T23:34:26.903Z,16.30
2018-07-21T23:39:36.917Z,16.30
2018-07-21T23:42:11.735Z,16.20
2018-07-21T23:44:46.416Z,16.30
2018-07-21T23:47:21.150Z,16.20
2018-07-21T23:49:55.869Z,16.20
2018-07-21T23:52:31.643Z,16.20
2018-07-21T23:55:08.320Z,16.30
2018-07-21T23:57:43.051Z,16.40
